sensor_id;sensor_type;location;lat;lon;timestamp;temperature;humidity
14397;DHT22;50653;47.810;13.022;2023-03-01T00:01:25;2.10;99.10
14397;DHT22;50653;47.810;13.022;2023-03-01T00:03:52;2.00;99.10
14397;DHT22;50653;47.810;13.022;2023-03-01T00:06:19;2.00;99.20
14397;DHT22;50653;47.810;13.022;2023-03-01T00:08:45;2.10;99.30
14397;DHT22;50653;47.810;13.022;2023-03-01T00:11:23;2.00;99.10
14397;DHT22;50653;47.810;13.022;2023-03-01T00:13:51;2.00;99.20
14397;DHT22;50653;47.810;13.022;2023-03-01T00:16:22;2.00;99.20
14397;DHT22;50653;47.810;13.022;2023-03-01T00:18:48;2.00;99.20
14397;DHT22;50653;47.810;13.022;2023-03-01T00:21:14;2.00;99.30
14397;DHT22;50653;47.810;13.022;2023-03-01T00:23:40;1.90;99.30
14397;DHT22;50653;47.810;13.022;2023-03-01T00:26:08;1.90;99.50
14397;DHT22;50653;47.810;13.022;2023-03-01T00:28:35;1.80;99.50
14397;DHT22;50653;47.810;13.022;2023-03-01T00:31:18;1.80;99.50
14397;DHT22;50653;47.810;13.022;2023-03-01T00:33:44;1.80;99.70
14397;DHT22;50653;47.810;13.022;2023-03-01T00:36:12;1.80;99.80
14397;DHT22;50653;47.810;13.022;2023-03-01T00:38:41;1.70;99.80
14397;DHT22;50653;47.810;13.022;2023-03-01T00:41:09;1.70;99.90
14397;DHT22;50653;47.810;13.022;2023-03-01T00:43:36;1.70;99.90
14397;DHT22;50653;47.810;13.022;2023-03-01T00:46:07;1.70;99.90
14397;DHT22;50653;47.810;13.022;2023-03-01T00:48:34;1.70;99.90
14397;DHT22;50653;47.810;13.022;2023-03-01T00:51:12;1.70;99.90
14397;DHT22;50653;47.810;13.022;2023-03-01T00:53:38;1.70;99.90
14397;DHT22;50653;47.810;13.022;2023-03-01T00:56:05;1.70;99.90
14397;DHT22;50653;47.810;13.022;2023-03-01T00:58:31;1.70;99.90
14397;DHT22;50653;47.810;13.022;2023-03-01T01:00:57;1.70;99.90
14397;DHT22;50653;47.810;13.022;2023-03-01T01:03:23;1.70;99.90
14397;DHT22;50653;47.810;13.022;2023-03-01T01:05:53;1.60;99.90
14397;DHT22;50653;47.810;13.022;2023-03-01T01:08:20;1.60;99.90
14397;DHT22;50653;47.810;13.022;2023-03-01T01:10:46;1.50;99.90
14397;DHT22;50653;47.810;13.022;2023-03-01T01:13:12;1.40;99.90
14397;DHT22;50653;47.810;13.022;2023-03-01T01:15:39;1.30;99.90
14397;DHT22;50653;47.810;13.022;2023-03-01T01:18:05;1.40;99.90
14397;DHT22;50653;47.810;13.022;2023-03-01T01:20:30;1.30;99.90
14397;DHT22;50653;47.810;13.022;2023-03-01T01:22:57;1.40;99.90
14397;DHT22;50653;47.810;13.022;2023-03-01T01:25:23;1.40;99.90
14397;DHT22;50653;47.810;13.022;2023-03-01T01:27:50;1.40;99.90
14397;DHT22;50653;47.810;13.022;2023-03-01T01:30:16;1.40;99.90
14397;DHT22;50653;47.810;13.022;2023-03-01T01:32:42;1.40;99.90
14397;DHT22;50653;47.810;13.022;2023-03-01T01:35:08;1.40;99.90
14397;DHT22;50653;47.810;13.022;2023-03-01T01:37:34;1.30;99.90
14397;DHT22;50653;47.810;13.022;2023-03-01T01:40:00;1.30;99.90
14397;DHT22;50653;47.810;13.022;2023-03-01T01:42:29;1.20;99.90
14397;DHT22;50653;47.810;13.022;2023-03-01T01:45:33;1.20;99.90
14397;DHT22;50653;47.810;13.022;2023-03-01T01:48:12;1.10;99.90
14397;DHT22;50653;47.810;13.022;2023-03-01T01:50:39;1.20;99.90
14397;DHT22;50653;47.810;13.022;2023-03-01T01:53:17;1.20;99.90
14397;DHT22;50653;47.810;13.022;2023-03-01T01:55:52;1.20;99.90
14397;DHT22;50653;47.810;13.022;2023-03-01T01:58:20;1.20;99.90
14397;DHT22;50653;47.810;13.022;2023-03-01T02:00:47;1.10;99.90
14397;DHT22;50653;47.810;13.022;2023-03-01T02:03:26;1.10;99.90
14397;DHT22;50653;47.810;13.022;2023-03-01T02:06:04;1.00;99.90
14397;DHT22;50653;47.810;13.022;2023-03-01T02:08:33;1.10;99.90
14397;DHT22;50653;47.810;13.022;2023-03-01T02:11:01;1.10;99.90
14397;DHT22;50653;47.810;13.022;2023-03-01T02:13:30;1.00;99.90
14397;DHT22;50653;47.810;13.022;2023-03-01T02:15:56;1.00;99.90
14397;DHT22;50653;47.810;13.022;2023-03-01T02:18:23;1.00;99.90
14397;DHT22;50653;47.810;13.022;2023-03-01T02:23:36;1.10;99.80
14397;DHT22;50653;47.810;13.022;2023-03-01T02:26:09;1.00;99.70
14397;DHT22;50653;47.810;13.022;2023-03-01T02:28:38;1.10;99.60
14397;DHT22;50653;47.810;13.022;2023-03-01T02:31:07;1.10;99.60
14397;DHT22;50653;47.810;13.022;2023-03-01T02:33:53;1.10;99.50
14397;DHT22;50653;47.810;13.022;2023-03-01T02:36:24;1.00;99.20
14397;DHT22;50653;47.810;13.022;2023-03-01T02:38:54;1.00;99.60
14397;DHT22;50653;47.810;13.022;2023-03-01T02:41:22;1.00;99.50
14397;DHT22;50653;47.810;13.022;2023-03-01T02:43:49;0.90;99.60
14397;DHT22;50653;47.810;13.022;2023-03-01T02:46:22;0.90;99.90
14397;DHT22;50653;47.810;13.022;2023-03-01T02:48:52;0.90;99.70
14397;DHT22;50653;47.810;13.022;2023-03-01T02:56:40;0.80;99.80
14397;DHT22;50653;47.810;13.022;2023-03-01T02:59:07;0.90;99.90
14397;DHT22;50653;47.810;13.022;2023-03-01T03:01:35;0.90;99.80
14397;DHT22;50653;47.810;13.022;2023-03-01T03:04:07;0.90;99.70
14397;DHT22;50653;47.810;13.022;2023-03-01T03:06:33;0.90;99.70
14397;DHT22;50653;47.810;13.022;2023-03-01T03:08:59;0.90;99.70
14397;DHT22;50653;47.810;13.022;2023-03-01T03:11:25;0.90;99.70
14397;DHT22;50653;47.810;13.022;2023-03-01T03:13:51;0.90;99.70
14397;DHT22;50653;47.810;13.022;2023-03-01T03:16:19;0.70;99.90
14397;DHT22;50653;47.810;13.022;2023-03-01T03:18:44;0.80;99.90
14397;DHT22;50653;47.810;13.022;2023-03-01T03:21:12;0.80;99.90
14397;DHT22;50653;47.810;13.022;2023-03-01T03:23:38;0.90;99.90
14397;DHT22;50653;47.810;13.022;2023-03-01T03:26:04;0.90;99.90
14397;DHT22;50653;47.810;13.022;2023-03-01T03:28:34;0.90;99.90
14397;DHT22;50653;47.810;13.022;2023-03-01T03:31:01;0.80;99.90
14397;DHT22;50653;47.810;13.022;2023-03-01T03:33:30;0.80;99.90
14397;DHT22;50653;47.810;13.022;2023-03-01T03:35:56;0.90;99.90
14397;DHT22;50653;47.810;13.022;2023-03-01T03:38:22;0.80;99.90
14397;DHT22;50653;47.810;13.022;2023-03-01T03:40:50;0.90;99.90
14397;DHT22;50653;47.810;13.022;2023-03-01T03:43:19;0.90;99.90
14397;DHT22;50653;47.810;13.022;2023-03-01T03:45:46;0.90;99.90
14397;DHT22;50653;47.810;13.022;2023-03-01T03:48:12;1.00;99.90
14397;DHT22;50653;47.810;13.022;2023-03-01T03:50:39;0.90;99.90
14397;DHT22;50653;47.810;13.022;2023-03-01T03:53:11;1.00;99.90
14397;DHT22;50653;47.810;13.022;2023-03-01T03:55:37;1.00;99.90
14397;DHT22;50653;47.810;13.022;2023-03-01T03:58:06;0.90;99.90
14397;DHT22;50653;47.810;13.022;2023-03-01T04:00:41;0.80;99.70
14397;DHT22;50653;47.810;13.022;2023-03-01T04:03:08;0.60;99.90
14397;DHT22;50653;47.810;13.022;2023-03-01T04:05:34;0.50;99.90
14397;DHT22;50653;47.810;13.022;2023-03-01T04:08:00;0.40;99.90
14397;DHT22;50653;47.810;13.022;2023-03-01T04:10:31;0.30;99.90
14397;DHT22;50653;47.810;13.022;2023-03-01T04:12:57;0.30;99.90
14397;DHT22;50653;47.810;13.022;2023-03-01T04:15:24;0.30;99.90
14397;DHT22;50653;47.810;13.022;2023-03-01T04:17:52;0.40;99.90
14397;DHT22;50653;47.810;13.022;2023-03-01T04:20:23;0.40;99.90
14397;DHT22;50653;47.810;13.022;2023-03-01T04:25:25;0.30;99.90
14397;DHT22;50653;47.810;13.022;2023-03-01T04:27:51;0.30;99.90
14397;DHT22;50653;47.810;13.022;2023-03-01T04:30:17;0.40;99.90
14397;DHT22;50653;47.810;13.022;2023-03-01T04:32:43;0.40;99.90
14397;DHT22;50653;47.810;13.022;2023-03-01T04:35:09;0.50;99.90
14397;DHT22;50653;47.810;13.022;2023-03-01T04:37:34;0.40;99.90
14397;DHT22;50653;47.810;13.022;2023-03-01T04:40:01;0.40;99.90
14397;DHT22;50653;47.810;13.022;2023-03-01T04:42:37;0.40;99.90
14397;DHT22;50653;47.810;13.022;2023-03-01T04:45:03;0.40;99.90
14397;DHT22;50653;47.810;13.022;2023-03-01T04:47:39;0.40;99.90
14397;DHT22;50653;47.810;13.022;2023-03-01T04:50:05;0.40;99.90
14397;DHT22;50653;47.810;13.022;2023-03-01T04:52:31;0.30;99.90
14397;DHT22;50653;47.810;13.022;2023-03-01T04:54:57;0.30;99.90
14397;DHT22;50653;47.810;13.022;2023-03-01T04:57:22;0.20;99.90
14397;DHT22;50653;47.810;13.022;2023-03-01T04:59:48;0.20;99.90
14397;DHT22;50653;47.810;13.022;2023-03-01T05:02:13;0.20;99.90
14397;DHT22;50653;47.810;13.022;2023-03-01T05:04:39;0.30;99.90
14397;DHT22;50653;47.810;13.022;2023-03-01T05:07:05;0.50;99.90
14397;DHT22;50653;47.810;13.022;2023-03-01T05:09:30;0.50;99.50
14397;DHT22;50653;47.810;13.022;2023-03-01T05:11:56;0.30;99.40
14397;DHT22;50653;47.810;13.022;2023-03-01T05:14:21;0.20;99.90
14397;DHT22;50653;47.810;13.022;2023-03-01T05:16:48;0.20;99.90
14397;DHT22;50653;47.810;13.022;2023-03-01T05:19:13;0.10;99.90
14397;DHT22;50653;47.810;13.022;2023-03-01T05:21:48;0.30;99.90
14397;DHT22;50653;47.810;13.022;2023-03-01T05:24:33;0.10;99.90
14397;DHT22;50653;47.810;13.022;2023-03-01T05:27:00;0.00;99.90
14397;DHT22;50653;47.810;13.022;2023-03-01T05:29:27;0.10;99.90
14397;DHT22;50653;47.810;13.022;2023-03-01T05:31:56;0.20;99.90
14397;DHT22;50653;47.810;13.022;2023-03-01T05:34:32;0.40;99.90
14397;DHT22;50653;47.810;13.022;2023-03-01T05:36:58;0.20;99.90
14397;DHT22;50653;47.810;13.022;2023-03-01T05:39:25;0.00;99.90
14397;DHT22;50653;47.810;13.022;2023-03-01T05:41:59;0.00;99.90
14397;DHT22;50653;47.810;13.022;2023-03-01T05:44:25;0.10;99.90
14397;DHT22;50653;47.810;13.022;2023-03-01T05:46:51;0.10;99.90
14397;DHT22;50653;47.810;13.022;2023-03-01T05:49:17;0.00;99.90
14397;DHT22;50653;47.810;13.022;2023-03-01T05:51:52;0.20;99.90
14397;DHT22;50653;47.810;13.022;2023-03-01T05:54:20;0.20;99.90
14397;DHT22;50653;47.810;13.022;2023-03-01T05:56:46;0.40;99.90
14397;DHT22;50653;47.810;13.022;2023-03-01T05:59:12;0.30;99.90
14397;DHT22;50653;47.810;13.022;2023-03-01T06:01:39;0.30;99.90
14397;DHT22;50653;47.810;13.022;2023-03-01T06:04:04;0.20;99.90
14397;DHT22;50653;47.810;13.022;2023-03-01T06:06:34;0.40;99.90
14397;DHT22;50653;47.810;13.022;2023-03-01T06:09:00;0.20;99.90
14397;DHT22;50653;47.810;13.022;2023-03-01T06:11:25;0.40;99.90
14397;DHT22;50653;47.810;13.022;2023-03-01T06:13:51;0.30;99.90
14397;DHT22;50653;47.810;13.022;2023-03-01T06:16:16;0.30;99.90
14397;DHT22;50653;47.810;13.022;2023-03-01T06:18:42;0.20;99.90
14397;DHT22;50653;47.810;13.022;2023-03-01T06:21:08;0.40;99.90
14397;DHT22;50653;47.810;13.022;2023-03-01T06:23:34;0.50;99.90
14397;DHT22;50653;47.810;13.022;2023-03-01T06:26:04;0.50;99.90
14397;DHT22;50653;47.810;13.022;2023-03-01T06:28:30;0.60;99.90
14397;DHT22;50653;47.810;13.022;2023-03-01T06:30:55;0.50;99.90
14397;DHT22;50653;47.810;13.022;2023-03-01T06:33:21;0.60;99.90
14397;DHT22;50653;47.810;13.022;2023-03-01T06:35:49;0.60;99.90
14397;DHT22;50653;47.810;13.022;2023-03-01T06:38:15;0.40;99.90
14397;DHT22;50653;47.810;13.022;2023-03-01T06:40:43;0.30;99.90
14397;DHT22;50653;47.810;13.022;2023-03-01T06:43:09;0.50;99.90
14397;DHT22;50653;47.810;13.022;2023-03-01T06:45:34;0.30;99.90
14397;DHT22;50653;47.810;13.022;2023-03-01T06:48:07;0.40;99.90
14397;DHT22;50653;47.810;13.022;2023-03-01T06:50:34;0.30;99.90
14397;DHT22;50653;47.810;13.022;2023-03-01T06:53:00;0.50;99.90
14397;DHT22;50653;47.810;13.022;2023-03-01T06:55:25;0.50;99.90
14397;DHT22;50653;47.810;13.022;2023-03-01T06:57:58;0.50;99.90
14397;DHT22;50653;47.810;13.022;2023-03-01T07:00:25;0.50;99.90
14397;DHT22;50653;47.810;13.022;2023-03-01T07:02:51;0.60;99.90
14397;DHT22;50653;47.810;13.022;2023-03-01T07:05:17;0.70;99.90
14397;DHT22;50653;47.810;13.022;2023-03-01T07:07:42;0.60;99.90
14397;DHT22;50653;47.810;13.022;2023-03-01T07:10:09;0.60;99.90
14397;DHT22;50653;47.810;13.022;2023-03-01T07:12:34;0.50;99.90
14397;DHT22;50653;47.810;13.022;2023-03-01T07:15:00;0.50;99.90
14397;DHT22;50653;47.810;13.022;2023-03-01T07:17:26;0.50;99.90
14397;DHT22;50653;47.810;13.022;2023-03-01T07:19:51;0.70;99.90
14397;DHT22;50653;47.810;13.022;2023-03-01T07:22:17;0.80;99.90
14397;DHT22;50653;47.810;13.022;2023-03-01T07:24:43;1.00;99.90
14397;DHT22;50653;47.810;13.022;2023-03-01T07:27:09;1.10;99.90
14397;DHT22;50653;47.810;13.022;2023-03-01T07:29:35;1.10;99.90
14397;DHT22;50653;47.810;13.022;2023-03-01T07:32:03;1.10;99.90
14397;DHT22;50653;47.810;13.022;2023-03-01T07:34:28;1.10;99.90
14397;DHT22;50653;47.810;13.022;2023-03-01T07:36:54;1.10;99.90
14397;DHT22;50653;47.810;13.022;2023-03-01T07:39:20;1.20;99.90
14397;DHT22;50653;47.810;13.022;2023-03-01T07:41:48;1.20;99.90
14397;DHT22;50653;47.810;13.022;2023-03-01T07:44:16;1.10;99.90
14397;DHT22;50653;47.810;13.022;2023-03-01T07:46:43;1.10;99.90
14397;DHT22;50653;47.810;13.022;2023-03-01T07:49:09;1.10;99.90
14397;DHT22;50653;47.810;13.022;2023-03-01T07:51:34;1.20;99.90
14397;DHT22;50653;47.810;13.022;2023-03-01T07:54:00;1.30;99.90
14397;DHT22;50653;47.810;13.022;2023-03-01T07:56:25;1.30;99.90
14397;DHT22;50653;47.810;13.022;2023-03-01T07:58:51;1.30;99.90
14397;DHT22;50653;47.810;13.022;2023-03-01T08:01:19;1.40;99.90
14397;DHT22;50653;47.810;13.022;2023-03-01T08:03:45;1.50;99.90
14397;DHT22;50653;47.810;13.022;2023-03-01T08:06:13;1.50;99.90
14397;DHT22;50653;47.810;13.022;2023-03-01T08:08:39;1.50;99.90
14397;DHT22;50653;47.810;13.022;2023-03-01T08:11:06;1.60;99.90
14397;DHT22;50653;47.810;13.022;2023-03-01T08:13:33;1.70;99.90
14397;DHT22;50653;47.810;13.022;2023-03-01T08:16:06;1.70;99.90
14397;DHT22;50653;47.810;13.022;2023-03-01T08:18:32;1.70;99.90
14397;DHT22;50653;47.810;13.022;2023-03-01T08:21:15;1.70;99.90
14397;DHT22;50653;47.810;13.022;2023-03-01T08:23:41;1.80;99.90
14397;DHT22;50653;47.810;13.022;2023-03-01T08:26:10;1.90;99.90
14397;DHT22;50653;47.810;13.022;2023-03-01T08:28:36;1.90;99.90
14397;DHT22;50653;47.810;13.022;2023-03-01T08:31:02;1.90;99.90
14397;DHT22;50653;47.810;13.022;2023-03-01T08:33:29;2.00;99.70
14397;DHT22;50653;47.810;13.022;2023-03-01T08:36:15;2.00;99.70
14397;DHT22;50653;47.810;13.022;2023-03-01T08:38:41;2.00;99.80
14397;DHT22;50653;47.810;13.022;2023-03-01T08:41:06;2.00;99.70
14397;DHT22;50653;47.810;13.022;2023-03-01T08:43:32;2.00;99.80
14397;DHT22;50653;47.810;13.022;2023-03-01T08:45:58;2.00;99.50
14397;DHT22;50653;47.810;13.022;2023-03-01T08:48:23;1.90;99.20
14397;DHT22;50653;47.810;13.022;2023-03-01T08:50:49;2.10;99.40
14397;DHT22;50653;47.810;13.022;2023-03-01T08:53:15;2.00;99.30
14397;DHT22;50653;47.810;13.022;2023-03-01T08:55:40;2.00;99.40
14397;DHT22;50653;47.810;13.022;2023-03-01T08:58:06;1.90;99.50
14397;DHT22;50653;47.810;13.022;2023-03-01T09:00:31;2.10;99.60
14397;DHT22;50653;47.810;13.022;2023-03-01T09:03:00;2.20;99.40
14397;DHT22;50653;47.810;13.022;2023-03-01T09:09:58;2.20;98.90
14397;DHT22;50653;47.810;13.022;2023-03-01T09:12:23;2.30;98.80
14397;DHT22;50653;47.810;13.022;2023-03-01T09:18:52;2.50;98.90
14397;DHT22;50653;47.810;13.022;2023-03-01T09:21:19;2.60;98.60
14397;DHT22;50653;47.810;13.022;2023-03-01T09:23:48;2.40;98.30
14397;DHT22;50653;47.810;13.022;2023-03-01T09:26:16;2.10;98.50
14397;DHT22;50653;47.810;13.022;2023-03-01T09:32:31;2.00;99.50
14397;DHT22;50653;47.810;13.022;2023-03-01T09:38:18;2.40;99.20
14397;DHT22;50653;47.810;13.022;2023-03-01T09:40:56;2.30;98.50
14397;DHT22;50653;47.810;13.022;2023-03-01T10:18:19;2.70;98.60
14397;DHT22;50653;47.810;13.022;2023-03-01T10:21:02;2.70;98.20
14397;DHT22;50653;47.810;13.022;2023-03-01T10:23:31;2.70;98.30
14397;DHT22;50653;47.810;13.022;2023-03-01T10:26:32;2.70;98.10
14397;DHT22;50653;47.810;13.022;2023-03-01T10:29:08;2.70;97.90
14397;DHT22;50653;47.810;13.022;2023-03-01T10:31:44;2.60;98.10
14397;DHT22;50653;47.810;13.022;2023-03-01T10:34:20;2.60;98.70
14397;DHT22;50653;47.810;13.022;2023-03-01T10:36:51;2.80;98.60
14397;DHT22;50653;47.810;13.022;2023-03-01T10:39:23;3.10;98.40
14397;DHT22;50653;47.810;13.022;2023-03-01T10:41:58;3.20;98.40
14397;DHT22;50653;47.810;13.022;2023-03-01T10:44:47;3.20;98.00
14397;DHT22;50653;47.810;13.022;2023-03-01T10:47:22;3.30;98.10
14397;DHT22;50653;47.810;13.022;2023-03-01T10:49:54;3.30;98.10
14397;DHT22;50653;47.810;13.022;2023-03-01T10:52:22;3.30;97.60
14397;DHT22;50653;47.810;13.022;2023-03-01T10:54:55;3.30;97.80
14397;DHT22;50653;47.810;13.022;2023-03-01T10:57:36;3.20;97.50
14397;DHT22;50653;47.810;13.022;2023-03-01T11:00:22;3.40;97.60
14397;DHT22;50653;47.810;13.022;2023-03-01T11:03:08;3.50;97.60
14397;DHT22;50653;47.810;13.022;2023-03-01T11:05:35;3.50;97.50
14397;DHT22;50653;47.810;13.022;2023-03-01T11:08:02;3.60;97.50
14397;DHT22;50653;47.810;13.022;2023-03-01T11:10:33;3.60;97.60
14397;DHT22;50653;47.810;13.022;2023-03-01T11:13:17;3.60;97.80
14397;DHT22;50653;47.810;13.022;2023-03-01T11:15:57;3.60;97.60
14397;DHT22;50653;47.810;13.022;2023-03-01T11:18:23;3.60;97.10
14397;DHT22;50653;47.810;13.022;2023-03-01T11:20:53;3.50;96.90
14397;DHT22;50653;47.810;13.022;2023-03-01T11:23:20;3.60;97.00
14397;DHT22;50653;47.810;13.022;2023-03-01T11:25:55;3.40;96.30
14397;DHT22;50653;47.810;13.022;2023-03-01T11:28:22;3.50;96.70
14397;DHT22;50653;47.810;13.022;2023-03-01T11:31:08;3.50;96.40
14397;DHT22;50653;47.810;13.022;2023-03-01T11:36:41;3.50;96.20
14397;DHT22;50653;47.810;13.022;2023-03-01T11:42:20;3.50;96.60
14397;DHT22;50653;47.810;13.022;2023-03-01T11:44:53;3.60;96.80
14397;DHT22;50653;47.810;13.022;2023-03-01T11:47:40;3.60;96.60
14397;DHT22;50653;47.810;13.022;2023-03-01T11:50:19;3.70;97.00
14397;DHT22;50653;47.810;13.022;2023-03-01T11:52:55;3.70;96.50
14397;DHT22;50653;47.810;13.022;2023-03-01T11:55:46;3.60;96.40
14397;DHT22;50653;47.810;13.022;2023-03-01T11:58:48;3.70;96.60
14397;DHT22;50653;47.810;13.022;2023-03-01T12:01:37;3.70;96.60
14397;DHT22;50653;47.810;13.022;2023-03-01T12:04:26;3.70;96.80
14397;DHT22;50653;47.810;13.022;2023-03-01T12:07:18;3.80;97.10
14397;DHT22;50653;47.810;13.022;2023-03-01T12:26:56;4.10;96.70
14397;DHT22;50653;47.810;13.022;2023-03-01T12:32:36;4.20;96.60
14397;DHT22;50653;47.810;13.022;2023-03-01T12:35:40;4.20;96.50
14397;DHT22;50653;47.810;13.022;2023-03-01T12:41:15;4.30;96.60
14397;DHT22;50653;47.810;13.022;2023-03-01T12:49:41;4.50;97.00
14397;DHT22;50653;47.810;13.022;2023-03-01T12:52:19;4.60;96.90
14397;DHT22;50653;47.810;13.022;2023-03-01T12:54:50;4.80;96.70
14397;DHT22;50653;47.810;13.022;2023-03-01T12:57:38;4.80;96.30
14397;DHT22;50653;47.810;13.022;2023-03-01T13:00:27;4.90;96.40
14397;DHT22;50653;47.810;13.022;2023-03-01T13:08:39;5.00;96.10
14397;DHT22;50653;47.810;13.022;2023-03-01T13:11:18;5.00;96.60
14397;DHT22;50653;47.810;13.022;2023-03-01T13:13:45;4.90;96.40
14397;DHT22;50653;47.810;13.022;2023-03-01T13:19:21;5.00;96.30
14397;DHT22;50653;47.810;13.022;2023-03-01T13:21:49;5.10;96.10
14397;DHT22;50653;47.810;13.022;2023-03-01T13:24:28;5.30;96.00
14397;DHT22;50653;47.810;13.022;2023-03-01T13:29:51;5.30;95.90
14397;DHT22;50653;47.810;13.022;2023-03-01T13:32:29;5.60;95.70
14397;DHT22;50653;47.810;13.022;2023-03-01T13:35:02;5.60;95.90
14397;DHT22;50653;47.810;13.022;2023-03-01T13:37:36;5.50;96.00
14397;DHT22;50653;47.810;13.022;2023-03-01T13:42:55;5.80;95.60
14397;DHT22;50653;47.810;13.022;2023-03-01T13:47:49;5.50;96.70
14397;DHT22;50653;47.810;13.022;2023-03-01T13:50:24;5.60;96.80
14397;DHT22;50653;47.810;13.022;2023-03-01T13:52:53;5.70;96.00
14397;DHT22;50653;47.810;13.022;2023-03-01T13:55:36;5.80;96.50
14397;DHT22;50653;47.810;13.022;2023-03-01T13:58:12;5.80;96.30
14397;DHT22;50653;47.810;13.022;2023-03-01T14:00:40;5.90;96.00
14397;DHT22;50653;47.810;13.022;2023-03-01T14:03:17;5.90;96.00
14397;DHT22;50653;47.810;13.022;2023-03-01T14:06:08;5.80;96.40
14397;DHT22;50653;47.810;13.022;2023-03-01T14:08:37;5.70;96.90
14397;DHT22;50653;47.810;13.022;2023-03-01T14:19:18;6.20;95.70
14397;DHT22;50653;47.810;13.022;2023-03-01T14:21:45;6.30;96.10
14397;DHT22;50653;47.810;13.022;2023-03-01T14:24:20;6.30;96.30
14397;DHT22;50653;47.810;13.022;2023-03-01T14:26:47;6.20;96.10
14397;DHT22;50653;47.810;13.022;2023-03-01T14:29:34;6.30;96.10
14397;DHT22;50653;47.810;13.022;2023-03-01T14:32:33;6.40;95.90
14397;DHT22;50653;47.810;13.022;2023-03-01T14:34:59;6.40;96.30
14397;DHT22;50653;47.810;13.022;2023-03-01T14:37:31;6.40;96.50
14397;DHT22;50653;47.810;13.022;2023-03-01T14:39:58;6.60;96.30
14397;DHT22;50653;47.810;13.022;2023-03-01T14:42:28;6.60;96.20
14397;DHT22;50653;47.810;13.022;2023-03-01T14:44:56;6.70;95.50
14397;DHT22;50653;47.810;13.022;2023-03-01T14:49:51;6.60;96.20
14397;DHT22;50653;47.810;13.022;2023-03-01T14:52:25;6.70;96.00
14397;DHT22;50653;47.810;13.022;2023-03-01T14:54:52;6.80;95.70
14397;DHT22;50653;47.810;13.022;2023-03-01T14:57:22;6.60;96.10
14397;DHT22;50653;47.810;13.022;2023-03-01T14:59:52;6.50;96.60
14397;DHT22;50653;47.810;13.022;2023-03-01T15:02:22;6.60;96.40
14397;DHT22;50653;47.810;13.022;2023-03-01T15:04:52;6.70;96.50
14397;DHT22;50653;47.810;13.022;2023-03-01T15:07:24;6.70;96.20
14397;DHT22;50653;47.810;13.022;2023-03-01T15:09:52;6.60;96.50
14397;DHT22;50653;47.810;13.022;2023-03-01T15:12:35;6.60;97.20
14397;DHT22;50653;47.810;13.022;2023-03-01T15:15:20;6.60;96.90
14397;DHT22;50653;47.810;13.022;2023-03-01T15:17:54;6.50;96.90
14397;DHT22;50653;47.810;13.022;2023-03-01T15:20:23;6.40;97.30
14397;DHT22;50653;47.810;13.022;2023-03-01T15:22:52;6.50;97.50
14397;DHT22;50653;47.810;13.022;2023-03-01T15:25:19;6.60;97.30
14397;DHT22;50653;47.810;13.022;2023-03-01T15:27:47;6.60;97.20
14397;DHT22;50653;47.810;13.022;2023-03-01T15:30:20;6.50;97.20
14397;DHT22;50653;47.810;13.022;2023-03-01T15:32:46;6.60;96.80
14397;DHT22;50653;47.810;13.022;2023-03-01T15:35:44;6.70;96.70
14397;DHT22;50653;47.810;13.022;2023-03-01T15:41:03;6.70;96.60
14397;DHT22;50653;47.810;13.022;2023-03-01T15:43:46;6.60;96.10
14397;DHT22;50653;47.810;13.022;2023-03-01T15:46:34;6.60;96.20
14397;DHT22;50653;47.810;13.022;2023-03-01T15:49:05;6.50;96.00
14397;DHT22;50653;47.810;13.022;2023-03-01T15:51:45;6.50;96.20
14397;DHT22;50653;47.810;13.022;2023-03-01T15:54:22;6.50;96.10
14397;DHT22;50653;47.810;13.022;2023-03-01T15:56:49;6.50;96.10
14397;DHT22;50653;47.810;13.022;2023-03-01T15:59:16;6.50;96.00
14397;DHT22;50653;47.810;13.022;2023-03-01T16:01:42;6.50;96.00
14397;DHT22;50653;47.810;13.022;2023-03-01T16:04:12;6.40;96.20
14397;DHT22;50653;47.810;13.022;2023-03-01T16:06:46;6.40;96.30
14397;DHT22;50653;47.810;13.022;2023-03-01T16:09:28;6.30;96.30
14397;DHT22;50653;47.810;13.022;2023-03-01T16:11:54;6.40;96.30
14397;DHT22;50653;47.810;13.022;2023-03-01T16:14:20;6.30;96.40
14397;DHT22;50653;47.810;13.022;2023-03-01T16:16:46;6.30;96.40
14397;DHT22;50653;47.810;13.022;2023-03-01T16:19:13;6.30;96.50
14397;DHT22;50653;47.810;13.022;2023-03-01T16:21:39;6.20;96.40
14397;DHT22;50653;47.810;13.022;2023-03-01T16:24:06;6.20;96.40
14397;DHT22;50653;47.810;13.022;2023-03-01T16:26:31;6.20;96.50
14397;DHT22;50653;47.810;13.022;2023-03-01T16:28:58;6.10;96.50
14397;DHT22;50653;47.810;13.022;2023-03-01T16:31:24;6.10;96.50
14397;DHT22;50653;47.810;13.022;2023-03-01T16:33:57;6.10;96.80
14397;DHT22;50653;47.810;13.022;2023-03-01T16:36:24;6.10;97.00
14397;DHT22;50653;47.810;13.022;2023-03-01T16:38:51;6.00;96.70
14397;DHT22;50653;47.810;13.022;2023-03-01T16:41:19;6.00;96.60
14397;DHT22;50653;47.810;13.022;2023-03-01T16:43:46;6.00;96.70
14397;DHT22;50653;47.810;13.022;2023-03-01T16:46:28;5.90;97.20
14397;DHT22;50653;47.810;13.022;2023-03-01T16:48:54;5.80;97.30
14397;DHT22;50653;47.810;13.022;2023-03-01T16:51:20;5.80;97.50
14397;DHT22;50653;47.810;13.022;2023-03-01T16:53:46;5.80;97.00
14397;DHT22;50653;47.810;13.022;2023-03-01T16:56:12;5.80;97.30
14397;DHT22;50653;47.810;13.022;2023-03-01T16:58:39;5.80;97.20
14397;DHT22;50653;47.810;13.022;2023-03-01T17:01:07;5.70;97.20
14397;DHT22;50653;47.810;13.022;2023-03-01T17:03:33;5.70;97.20
14397;DHT22;50653;47.810;13.022;2023-03-01T17:06:11;5.70;97.30
14397;DHT22;50653;47.810;13.022;2023-03-01T17:08:38;5.60;97.60
14397;DHT22;50653;47.810;13.022;2023-03-01T17:11:16;5.50;97.90
14397;DHT22;50653;47.810;13.022;2023-03-01T17:13:42;5.50;97.80
14397;DHT22;50653;47.810;13.022;2023-03-01T17:16:11;5.50;98.10
14397;DHT22;50653;47.810;13.022;2023-03-01T17:18:37;5.40;98.20
14397;DHT22;50653;47.810;13.022;2023-03-01T17:21:04;5.40;98.00
14397;DHT22;50653;47.810;13.022;2023-03-01T17:23:31;5.40;98.00
14397;DHT22;50653;47.810;13.022;2023-03-01T17:25:58;5.40;98.20
14397;DHT22;50653;47.810;13.022;2023-03-01T17:28:26;5.40;98.10
14397;DHT22;50653;47.810;13.022;2023-03-01T17:30:52;5.30;98.30
14397;DHT22;50653;47.810;13.022;2023-03-01T17:33:18;5.30;98.60
14397;DHT22;50653;47.810;13.022;2023-03-01T17:35:44;5.20;98.90
14397;DHT22;50653;47.810;13.022;2023-03-01T17:38:15;5.20;99.00
14397;DHT22;50653;47.810;13.022;2023-03-01T17:40:42;5.20;98.90
14397;DHT22;50653;47.810;13.022;2023-03-01T17:43:10;5.20;98.80
14397;DHT22;50653;47.810;13.022;2023-03-01T17:45:37;5.20;98.90
14397;DHT22;50653;47.810;13.022;2023-03-01T17:48:03;5.20;99.00
14397;DHT22;50653;47.810;13.022;2023-03-01T17:50:29;5.10;99.30
14397;DHT22;50653;47.810;13.022;2023-03-01T17:52:55;5.00;99.60
14397;DHT22;50653;47.810;13.022;2023-03-01T17:55:21;5.00;99.40